sensor_id;sensor_type;location;lat;lon;timestamp;P1;durP1;ratioP1;P2;durP2;ratioP2
2546;SDS011;1283;47.982;7.834;2023-04-29T00:02:06;9.45;;;4.80;;
2546;SDS011;1283;47.982;7.834;2023-04-29T00:04:33;8.65;;;5.68;;
2546;SDS011;1283;47.982;7.834;2023-04-29T00:07:00;6.13;;;4.03;;
2546;SDS011;1283;47.982;7.834;2023-04-29T00:09:27;10.10;;;5.22;;
2546;SDS011;1283;47.982;7.834;2023-04-29T00:11:54;10.68;;;4.03;;
2546;SDS011;1283;47.982;7.834;2023-04-29T00:14:20;8.40;;;2.88;;
2546;SDS011;1283;47.982;7.834;2023-04-29T00:16:47;7.32;;;2.50;;
2546;SDS011;1283;47.982;7.834;2023-04-29T00:19:13;3.58;;;1.95;;
2546;SDS011;1283;47.982;7.834;2023-04-29T00:21:40;7.78;;;2.20;;
2546;SDS011;1283;47.982;7.834;2023-04-29T00:24:06;8.98;;;3.45;;
2546;SDS011;1283;47.982;7.834;2023-04-29T00:26:34;12.50;;;5.25;;
2546;SDS011;1283;47.982;7.834;2023-04-29T00:29:01;13.80;;;5.70;;
2546;SDS011;1283;47.982;7.834;2023-04-29T00:31:27;8.30;;;4.50;;
2546;SDS011;1283;47.982;7.834;2023-04-29T00:33:53;7.40;;;3.83;;
2546;SDS011;1283;47.982;7.834;2023-04-29T00:36:20;9.35;;;3.50;;
2546;SDS011;1283;47.982;7.834;2023-04-29T00:38:46;9.23;;;4.03;;
2546;SDS011;1283;47.982;7.834;2023-04-29T00:41:13;11.05;;;3.85;;
2546;SDS011;1283;47.982;7.834;2023-04-29T00:43:40;9.82;;;3.42;;
2546;SDS011;1283;47.982;7.834;2023-04-29T00:46:07;7.88;;;3.13;;
2546;SDS011;1283;47.982;7.834;2023-04-29T00:48:34;5.72;;;3.15;;
2546;SDS011;1283;47.982;7.834;2023-04-29T00:51:00;23.60;;;9.90;;
2546;SDS011;1283;47.982;7.834;2023-04-29T00:53:28;11.10;;;4.65;;
2546;SDS011;1283;47.982;7.834;2023-04-29T00:55:54;13.80;;;3.42;;
2546;SDS011;1283;47.982;7.834;2023-04-29T00:58:21;10.48;;;3.33;;
2546;SDS011;1283;47.982;7.834;2023-04-29T01:00:55;10.52;;;2.78;;
2546;SDS011;1283;47.982;7.834;2023-04-29T01:03:22;4.82;;;2.33;;
2546;SDS011;1283;47.982;7.834;2023-04-29T01:05:50;7.85;;;2.92;;
2546;SDS011;1283;47.982;7.834;2023-04-29T01:08:22;5.43;;;2.10;;
2546;SDS011;1283;47.982;7.834;2023-04-29T01:10:58;4.00;;;2.42;;
2546;SDS011;1283;47.982;7.834;2023-04-29T01:13:32;6.53;;;2.75;;
2546;SDS011;1283;47.982;7.834;2023-04-29T01:16:03;9.45;;;2.15;;
2546;SDS011;1283;47.982;7.834;2023-04-29T01:18:35;5.50;;;2.13;;
2546;SDS011;1283;47.982;7.834;2023-04-29T01:21:02;2.85;;;1.90;;
2546;SDS011;1283;47.982;7.834;2023-04-29T01:23:30;8.32;;;2.05;;
2546;SDS011;1283;47.982;7.834;2023-04-29T01:25:57;7.57;;;2.35;;
2546;SDS011;1283;47.982;7.834;2023-04-29T01:28:32;5.97;;;2.35;;
2546;SDS011;1283;47.982;7.834;2023-04-29T01:31:06;4.60;;;2.50;;
2546;SDS011;1283;47.982;7.834;2023-04-29T01:33:50;4.65;;;1.70;;
2546;SDS011;1283;47.982;7.834;2023-04-29T01:36:26;3.30;;;1.83;;
2546;SDS011;1283;47.982;7.834;2023-04-29T01:39:02;4.65;;;1.70;;
2546;SDS011;1283;47.982;7.834;2023-04-29T01:41:34;2.00;;;1.40;;
2546;SDS011;1283;47.982;7.834;2023-04-29T01:44:07;2.53;;;1.50;;
2546;SDS011;1283;47.982;7.834;2023-04-29T01:46:34;9.73;;;1.73;;
2546;SDS011;1283;47.982;7.834;2023-04-29T01:49:01;2.25;;;1.73;;
2546;SDS011;1283;47.982;7.834;2023-04-29T01:51:27;3.28;;;1.77;;
2546;SDS011;1283;47.982;7.834;2023-04-29T01:53:54;3.83;;;1.70;;
2546;SDS011;1283;47.982;7.834;2023-04-29T01:56:22;3.92;;;1.50;;
2546;SDS011;1283;47.982;7.834;2023-04-29T01:58:49;2.47;;;1.40;;
2546;SDS011;1283;47.982;7.834;2023-04-29T02:01:15;3.70;;;1.40;;
2546;SDS011;1283;47.982;7.834;2023-04-29T02:03:41;4.05;;;1.40;;
2546;SDS011;1283;47.982;7.834;2023-04-29T02:06:08;4.30;;;1.42;;
2546;SDS011;1283;47.982;7.834;2023-04-29T02:08:34;4.15;;;1.70;;
2546;SDS011;1283;47.982;7.834;2023-04-29T02:11:01;7.03;;;1.38;;
2546;SDS011;1283;47.982;7.834;2023-04-29T02:13:29;5.32;;;1.90;;
2546;SDS011;1283;47.982;7.834;2023-04-29T02:15:55;4.47;;;1.67;;
2546;SDS011;1283;47.982;7.834;2023-04-29T02:18:22;4.68;;;1.50;;
2546;SDS011;1283;47.982;7.834;2023-04-29T02:20:48;7.78;;;1.80;;
2546;SDS011;1283;47.982;7.834;2023-04-29T02:23:15;4.53;;;1.83;;
2546;SDS011;1283;47.982;7.834;2023-04-29T02:25:42;8.27;;;1.70;;
2546;SDS011;1283;47.982;7.834;2023-04-29T02:28:08;4.90;;;2.00;;
2546;SDS011;1283;47.982;7.834;2023-04-29T02:30:37;5.95;;;2.00;;
2546;SDS011;1283;47.982;7.834;2023-04-29T02:33:04;5.05;;;1.90;;
2546;SDS011;1283;47.982;7.834;2023-04-29T02:35:30;4.63;;;2.15;;
2546;SDS011;1283;47.982;7.834;2023-04-29T02:37:57;3.22;;;2.13;;
2546;SDS011;1283;47.982;7.834;2023-04-29T02:40:23;7.05;;;2.65;;
2546;SDS011;1283;47.982;7.834;2023-04-29T02:42:51;9.88;;;2.22;;
2546;SDS011;1283;47.982;7.834;2023-04-29T02:45:17;4.40;;;2.13;;
2546;SDS011;1283;47.982;7.834;2023-04-29T02:47:45;3.55;;;1.80;;
2546;SDS011;1283;47.982;7.834;2023-04-29T02:50:11;9.30;;;2.30;;
2546;SDS011;1283;47.982;7.834;2023-04-29T02:52:38;6.00;;;2.33;;
2546;SDS011;1283;47.982;7.834;2023-04-29T02:55:06;5.50;;;2.28;;
2546;SDS011;1283;47.982;7.834;2023-04-29T02:57:33;5.63;;;2.17;;
2546;SDS011;1283;47.982;7.834;2023-04-29T02:59:59;3.45;;;1.80;;
2546;SDS011;1283;47.982;7.834;2023-04-29T03:02:26;6.57;;;1.73;;
2546;SDS011;1283;47.982;7.834;2023-04-29T03:04:53;5.18;;;1.85;;
2546;SDS011;1283;47.982;7.834;2023-04-29T03:07:20;3.53;;;2.00;;
2546;SDS011;1283;47.982;7.834;2023-04-29T03:09:46;5.07;;;2.10;;
2546;SDS011;1283;47.982;7.834;2023-04-29T03:12:13;11.77;;;2.40;;
2546;SDS011;1283;47.982;7.834;2023-04-29T03:14:40;7.63;;;1.98;;
2546;SDS011;1283;47.982;7.834;2023-04-29T03:17:07;5.93;;;1.85;;
2546;SDS011;1283;47.982;7.834;2023-04-29T03:19:33;4.22;;;1.90;;
2546;SDS011;1283;47.982;7.834;2023-04-29T03:22:01;5.75;;;2.15;;
2546;SDS011;1283;47.982;7.834;2023-04-29T03:24:27;4.75;;;2.42;;
2546;SDS011;1283;47.982;7.834;2023-04-29T03:26:54;7.18;;;2.13;;
2546;SDS011;1283;47.982;7.834;2023-04-29T03:29:20;3.05;;;2.03;;
2546;SDS011;1283;47.982;7.834;2023-04-29T03:31:47;5.88;;;1.63;;
2546;SDS011;1283;47.982;7.834;2023-04-29T03:34:13;3.10;;;1.65;;
2546;SDS011;1283;47.982;7.834;2023-04-29T03:36:40;4.68;;;1.65;;
2546;SDS011;1283;47.982;7.834;2023-04-29T03:39:07;8.52;;;1.52;;
2546;SDS011;1283;47.982;7.834;2023-04-29T03:41:35;3.38;;;1.58;;
2546;SDS011;1283;47.982;7.834;2023-04-29T03:44:02;4.15;;;1.20;;
2546;SDS011;1283;47.982;7.834;2023-04-29T03:46:29;1.60;;;1.33;;
2546;SDS011;1283;47.982;7.834;2023-04-29T03:48:55;3.92;;;1.60;;
2546;SDS011;1283;47.982;7.834;2023-04-29T03:51:22;4.18;;;1.60;;
2546;SDS011;1283;47.982;7.834;2023-04-29T03:53:48;2.03;;;1.30;;
2546;SDS011;1283;47.982;7.834;2023-04-29T03:56:17;2.42;;;1.48;;
2546;SDS011;1283;47.982;7.834;2023-04-29T03:58:43;4.38;;;1.52;;
2546;SDS011;1283;47.982;7.834;2023-04-29T04:01:10;2.65;;;1.20;;
2546;SDS011;1283;47.982;7.834;2023-04-29T04:03:37;3.53;;;1.45;;
2546;SDS011;1283;47.982;7.834;2023-04-29T04:06:03;5.43;;;1.20;;
2546;SDS011;1283;47.982;7.834;2023-04-29T04:08:29;7.07;;;1.55;;
2546;SDS011;1283;47.982;7.834;2023-04-29T04:10:56;2.72;;;1.48;;
2546;SDS011;1283;47.982;7.834;2023-04-29T04:13:28;4.65;;;1.50;;
2546;SDS011;1283;47.982;7.834;2023-04-29T04:15:54;5.88;;;1.38;;
2546;SDS011;1283;47.982;7.834;2023-04-29T04:18:21;6.47;;;1.50;;
2546;SDS011;1283;47.982;7.834;2023-04-29T04:20:48;6.38;;;2.00;;
2546;SDS011;1283;47.982;7.834;2023-04-29T04:23:14;8.70;;;2.05;;
2546;SDS011;1283;47.982;7.834;2023-04-29T04:25:43;5.63;;;1.70;;
2546;SDS011;1283;47.982;7.834;2023-04-29T04:28:10;5.45;;;1.70;;
2546;SDS011;1283;47.982;7.834;2023-04-29T04:30:38;5.43;;;1.70;;
2546;SDS011;1283;47.982;7.834;2023-04-29T04:33:05;8.85;;;2.25;;
2546;SDS011;1283;47.982;7.834;2023-04-29T04:35:31;4.47;;;1.40;;
2546;SDS011;1283;47.982;7.834;2023-04-29T04:37:57;7.18;;;1.60;;
2546;SDS011;1283;47.982;7.834;2023-04-29T04:40:24;4.35;;;1.90;;
2546;SDS011;1283;47.982;7.834;2023-04-29T04:42:51;4.97;;;1.80;;
2546;SDS011;1283;47.982;7.834;2023-04-29T04:45:18;5.15;;;2.05;;
2546;SDS011;1283;47.982;7.834;2023-04-29T04:47:46;5.70;;;1.60;;
2546;SDS011;1283;47.982;7.834;2023-04-29T04:50:12;6.43;;;2.35;;
2546;SDS011;1283;47.982;7.834;2023-04-29T04:52:38;5.55;;;2.30;;
2546;SDS011;1283;47.982;7.834;2023-04-29T04:55:05;1.58;;;1.42;;
2546;SDS011;1283;47.982;7.834;2023-04-29T04:57:32;5.38;;;1.77;;
2546;SDS011;1283;47.982;7.834;2023-04-29T04:59:59;4.75;;;1.60;;
2546;SDS011;1283;47.982;7.834;2023-04-29T05:02:25;4.18;;;1.75;;
2546;SDS011;1283;47.982;7.834;2023-04-29T05:04:53;4.13;;;1.77;;
2546;SDS011;1283;47.982;7.834;2023-04-29T05:07:20;7.80;;;1.88;;
2546;SDS011;1283;47.982;7.834;2023-04-29T05:09:46;5.68;;;2.33;;
2546;SDS011;1283;47.982;7.834;2023-04-29T05:12:13;3.83;;;1.88;;
2546;SDS011;1283;47.982;7.834;2023-04-29T05:14:39;5.25;;;1.83;;
2546;SDS011;1283;47.982;7.834;2023-04-29T05:17:06;4.22;;;1.98;;
2546;SDS011;1283;47.982;7.834;2023-04-29T05:19:34;6.57;;;2.38;;
2546;SDS011;1283;47.982;7.834;2023-04-29T05:22:01;4.93;;;1.83;;
2546;SDS011;1283;47.982;7.834;2023-04-29T05:24:28;4.57;;;2.10;;
2546;SDS011;1283;47.982;7.834;2023-04-29T05:26:54;4.75;;;2.30;;
2546;SDS011;1283;47.982;7.834;2023-04-29T05:29:21;6.78;;;1.90;;
2546;SDS011;1283;47.982;7.834;2023-04-29T05:31:47;10.60;;;3.65;;
2546;SDS011;1283;47.982;7.834;2023-04-29T05:34:14;6.50;;;2.00;;
2546;SDS011;1283;47.982;7.834;2023-04-29T05:36:40;3.35;;;2.50;;
2546;SDS011;1283;47.982;7.834;2023-04-29T05:39:08;5.35;;;2.25;;
2546;SDS011;1283;47.982;7.834;2023-04-29T05:41:35;4.20;;;2.65;;
2546;SDS011;1283;47.982;7.834;2023-04-29T05:44:01;4.85;;;3.38;;
2546;SDS011;1283;47.982;7.834;2023-04-29T05:46:28;6.20;;;3.13;;
2546;SDS011;1283;47.982;7.834;2023-04-29T05:48:54;5.18;;;3.22;;
2546;SDS011;1283;47.982;7.834;2023-04-29T05:51:21;6.95;;;3.38;;
2546;SDS011;1283;47.982;7.834;2023-04-29T05:53:47;4.90;;;2.88;;
2546;SDS011;1283;47.982;7.834;2023-04-29T05:56:15;3.45;;;2.80;;
2546;SDS011;1283;47.982;7.834;2023-04-29T05:58:42;3.13;;;2.63;;
2546;SDS011;1283;47.982;7.834;2023-04-29T06:01:08;4.93;;;2.92;;
2546;SDS011;1283;47.982;7.834;2023-04-29T06:03:35;5.10;;;2.90;;
2546;SDS011;1283;47.982;7.834;2023-04-29T06:06:01;11.27;;;2.30;;
2546;SDS011;1283;47.982;7.834;2023-04-29T06:08:28;8.35;;;2.42;;
2546;SDS011;1283;47.982;7.834;2023-04-29T06:10:54;6.63;;;2.40;;
2546;SDS011;1283;47.982;7.834;2023-04-29T06:13:22;4.50;;;2.65;;
2546;SDS011;1283;47.982;7.834;2023-04-29T06:15:49;3.22;;;2.55;;
2546;SDS011;1283;47.982;7.834;2023-04-29T06:18:15;4.85;;;2.42;;
2546;SDS011;1283;47.982;7.834;2023-04-29T06:20:42;3.90;;;2.40;;
2546;SDS011;1283;47.982;7.834;2023-04-29T06:23:08;3.88;;;1.98;;
2546;SDS011;1283;47.982;7.834;2023-04-29T06:25:35;3.30;;;1.80;;
2546;SDS011;1283;47.982;7.834;2023-04-29T06:28:01;5.70;;;1.75;;
2546;SDS011;1283;47.982;7.834;2023-04-29T06:30:29;4.20;;;1.85;;
2546;SDS011;1283;47.982;7.834;2023-04-29T06:32:56;4.85;;;1.80;;
2546;SDS011;1283;47.982;7.834;2023-04-29T06:35:22;4.45;;;2.03;;
2546;SDS011;1283;47.982;7.834;2023-04-29T06:37:48;7.18;;;1.70;;
2546;SDS011;1283;47.982;7.834;2023-04-29T06:40:16;2.85;;;1.67;;
2546;SDS011;1283;47.982;7.834;2023-04-29T06:42:43;3.22;;;1.63;;
2546;SDS011;1283;47.982;7.834;2023-04-29T06:45:09;4.18;;;1.85;;
2546;SDS011;1283;47.982;7.834;2023-04-29T06:47:37;3.42;;;1.75;;
2546;SDS011;1283;47.982;7.834;2023-04-29T06:50:04;6.45;;;1.60;;
2546;SDS011;1283;47.982;7.834;2023-04-29T06:52:31;5.85;;;1.30;;
2546;SDS011;1283;47.982;7.834;2023-04-29T06:54:58;4.05;;;1.42;;
2546;SDS011;1283;47.982;7.834;2023-04-29T06:57:25;1.98;;;1.30;;
2546;SDS011;1283;47.982;7.834;2023-04-29T06:59:51;5.22;;;1.50;;
2546;SDS011;1283;47.982;7.834;2023-04-29T07:02:17;7.65;;;1.52;;
2546;SDS011;1283;47.982;7.834;2023-04-29T07:04:45;3.80;;;1.20;;
2546;SDS011;1283;47.982;7.834;2023-04-29T07:07:13;2.88;;;1.67;;
2546;SDS011;1283;47.982;7.834;2023-04-29T07:09:40;2.63;;;1.77;;
2546;SDS011;1283;47.982;7.834;2023-04-29T07:12:06;1.83;;;1.27;;
2546;SDS011;1283;47.982;7.834;2023-04-29T07:17:08;2.67;;;1.50;;
2546;SDS011;1283;47.982;7.834;2023-04-29T07:19:34;2.53;;;1.55;;
2546;SDS011;1283;47.982;7.834;2023-04-29T07:22:02;4.78;;;1.73;;
2546;SDS011;1283;47.982;7.834;2023-04-29T07:24:29;3.17;;;1.45;;
2546;SDS011;1283;47.982;7.834;2023-04-29T07:26:55;5.85;;;1.20;;
2546;SDS011;1283;47.982;7.834;2023-04-29T07:29:22;9.13;;;1.40;;
2546;SDS011;1283;47.982;7.834;2023-04-29T07:31:48;3.67;;;1.15;;
2546;SDS011;1283;47.982;7.834;2023-04-29T07:34:14;1.10;;;1.00;;
2546;SDS011;1283;47.982;7.834;2023-04-29T07:36:41;1.67;;;1.20;;
2546;SDS011;1283;47.982;7.834;2023-04-29T07:39:09;5.13;;;1.80;;
2546;SDS011;1283;47.982;7.834;2023-04-29T07:41:36;2.08;;;1.30;;
2546;SDS011;1283;47.982;7.834;2023-04-29T07:44:02;7.90;;;1.30;;
2546;SDS011;1283;47.982;7.834;2023-04-29T07:46:29;1.67;;;1.25;;
2546;SDS011;1283;47.982;7.834;2023-04-29T07:48:56;3.53;;;1.40;;
2546;SDS011;1283;47.982;7.834;2023-04-29T07:51:22;6.05;;;1.67;;
2546;SDS011;1283;47.982;7.834;2023-04-29T07:53:49;3.72;;;1.70;;
2546;SDS011;1283;47.982;7.834;2023-04-29T07:56:16;3.88;;;1.40;;
2546;SDS011;1283;47.982;7.834;2023-04-29T07:58:44;3.38;;;1.30;;
2546;SDS011;1283;47.982;7.834;2023-04-29T08:01:10;1.98;;;1.42;;
2546;SDS011;1283;47.982;7.834;2023-04-29T08:03:37;2.58;;;1.48;;
2546;SDS011;1283;47.982;7.834;2023-04-29T08:06:04;1.83;;;1.50;;
2546;SDS011;1283;47.982;7.834;2023-04-29T08:08:31;2.03;;;1.17;;
2546;SDS011;1283;47.982;7.834;2023-04-29T08:10:57;3.88;;;1.55;;
2546;SDS011;1283;47.982;7.834;2023-04-29T08:13:25;3.10;;;1.80;;
2546;SDS011;1283;47.982;7.834;2023-04-29T08:15:52;2.30;;;1.60;;
2546;SDS011;1283;47.982;7.834;2023-04-29T08:18:18;3.45;;;1.90;;
2546;SDS011;1283;47.982;7.834;2023-04-29T08:20:46;4.25;;;1.55;;
2546;SDS011;1283;47.982;7.834;2023-04-29T08:23:13;2.80;;;1.33;;
2546;SDS011;1283;47.982;7.834;2023-04-29T08:25:40;2.95;;;1.40;;
2546;SDS011;1283;47.982;7.834;2023-04-29T08:28:06;7.47;;;1.88;;
2546;SDS011;1283;47.982;7.834;2023-04-29T08:30:37;8.40;;;1.70;;
2546;SDS011;1283;47.982;7.834;2023-04-29T08:33:04;3.92;;;1.90;;
2546;SDS011;1283;47.982;7.834;2023-04-29T08:35:32;2.47;;;1.48;;
2546;SDS011;1283;47.982;7.834;2023-04-29T08:37:58;3.78;;;1.83;;
2546;SDS011;1283;47.982;7.834;2023-04-29T08:40:25;7.40;;;2.00;;
2546;SDS011;1283;47.982;7.834;2023-04-29T08:42:52;4.80;;;1.80;;
2546;SDS011;1283;47.982;7.834;2023-04-29T08:45:19;4.38;;;1.75;;
2546;SDS011;1283;47.982;7.834;2023-04-29T08:47:49;2.75;;;2.05;;
2546;SDS011;1283;47.982;7.834;2023-04-29T08:50:16;3.88;;;1.80;;
2546;SDS011;1283;47.982;7.834;2023-04-29T08:52:43;3.42;;;1.70;;
2546;SDS011;1283;47.982;7.834;2023-04-29T08:55:09;1.95;;;1.45;;
2546;SDS011;1283;47.982;7.834;2023-04-29T08:57:36;6.53;;;1.70;;
2546;SDS011;1283;47.982;7.834;2023-04-29T09:00:04;3.75;;;2.00;;
2546;SDS011;1283;47.982;7.834;2023-04-29T09:02:32;3.13;;;1.88;;
2546;SDS011;1283;47.982;7.834;2023-04-29T09:05:04;5.78;;;2.63;;
2546;SDS011;1283;47.982;7.834;2023-04-29T09:07:33;7.60;;;2.08;;
2546;SDS011;1283;47.982;7.834;2023-04-29T09:10:00;2.70;;;1.83;;
2546;SDS011;1283;47.982;7.834;2023-04-29T09:12:27;3.63;;;1.90;;
2546;SDS011;1283;47.982;7.834;2023-04-29T09:14:54;3.55;;;2.20;;
2546;SDS011;1283;47.982;7.834;2023-04-29T09:23:00;4.32;;;2.03;;
2546;SDS011;1283;47.982;7.834;2023-04-29T09:25:27;3.95;;;1.92;;
2546;SDS011;1283;47.982;7.834;2023-04-29T09:27:54;4.07;;;1.90;;
2546;SDS011;1283;47.982;7.834;2023-04-29T09:30:21;3.72;;;2.10;;
2546;SDS011;1283;47.982;7.834;2023-04-29T09:33:02;4.10;;;1.58;;
2546;SDS011;1283;47.982;7.834;2023-04-29T09:35:30;4.85;;;1.95;;
2546;SDS011;1283;47.982;7.834;2023-04-29T09:38:08;4.90;;;2.17;;
2546;SDS011;1283;47.982;7.834;2023-04-29T09:40:37;7.35;;;2.25;;
2546;SDS011;1283;47.982;7.834;2023-04-29T09:43:09;2.22;;;1.50;;
2546;SDS011;1283;47.982;7.834;2023-04-29T09:45:38;6.80;;;1.73;;
2546;SDS011;1283;47.982;7.834;2023-04-29T09:48:06;2.80;;;2.22;;
2546;SDS011;1283;47.982;7.834;2023-04-29T09:50:34;5.72;;;1.70;;
2546;SDS011;1283;47.982;7.834;2023-04-29T09:53:02;1.73;;;1.42;;
2546;SDS011;1283;47.982;7.834;2023-04-29T09:55:30;3.10;;;1.95;;
2546;SDS011;1283;47.982;7.834;2023-04-29T09:57:57;2.97;;;2.05;;
2546;SDS011;1283;47.982;7.834;2023-04-29T10:00:24;3.42;;;1.98;;
2546;SDS011;1283;47.982;7.834;2023-04-29T10:02:53;3.67;;;2.20;;
2546;SDS011;1283;47.982;7.834;2023-04-29T10:05:21;4.95;;;1.90;;
2546;SDS011;1283;47.982;7.834;2023-04-29T10:07:48;3.22;;;1.70;;
2546;SDS011;1283;47.982;7.834;2023-04-29T10:10:15;3.88;;;1.70;;
2546;SDS011;1283;47.982;7.834;2023-04-29T10:12:43;2.90;;;1.90;;
2546;SDS011;1283;47.982;7.834;2023-04-29T10:15:12;5.03;;;1.63;;
2546;SDS011;1283;47.982;7.834;2023-04-29T10:17:47;4.10;;;2.47;;
2546;SDS011;1283;47.982;7.834;2023-04-29T10:20:18;2.13;;;1.65;;
2546;SDS011;1283;47.982;7.834;2023-04-29T10:22:48;2.70;;;2.10;;
2546;SDS011;1283;47.982;7.834;2023-04-29T10:25:15;3.75;;;1.75;;
2546;SDS011;1283;47.982;7.834;2023-04-29T10:27:44;3.17;;;1.73;;
2546;SDS011;1283;47.982;7.834;2023-04-29T10:30:11;4.50;;;2.72;;
2546;SDS011;1283;47.982;7.834;2023-04-29T10:32:39;3.88;;;2.55;;
2546;SDS011;1283;47.982;7.834;2023-04-29T10:35:06;2.72;;;1.65;;
2546;SDS011;1283;47.982;7.834;2023-04-29T10:37:34;6.85;;;1.85;;
2546;SDS011;1283;47.982;7.834;2023-04-29T10:40:05;3.83;;;1.80;;
2546;SDS011;1283;47.982;7.834;2023-04-29T10:42:36;2.22;;;1.80;;
2546;SDS011;1283;47.982;7.834;2023-04-29T10:45:20;2.47;;;1.23;;
2546;SDS011;1283;47.982;7.834;2023-04-29T10:50:39;2.78;;;2.05;;
2546;SDS011;1283;47.982;7.834;2023-04-29T10:53:21;2.28;;;1.90;;
2546;SDS011;1283;47.982;7.834;2023-04-29T10:55:47;4.97;;;2.00;;
2546;SDS011;1283;47.982;7.834;2023-04-29T10:58:32;6.78;;;2.30;;
2546;SDS011;1283;47.982;7.834;2023-04-29T11:01:01;4.70;;;1.85;;
2546;SDS011;1283;47.982;7.834;2023-04-29T11:03:47;4.13;;;1.98;;
2546;SDS011;1283;47.982;7.834;2023-04-29T11:06:18;6.72;;;1.77;;
2546;SDS011;1283;47.982;7.834;2023-04-29T11:08:45;5.00;;;1.80;;
2546;SDS011;1283;47.982;7.834;2023-04-29T11:11:12;3.03;;;2.00;;
2546;SDS011;1283;47.982;7.834;2023-04-29T11:13:39;3.97;;;1.98;;
2546;SDS011;1283;47.982;7.834;2023-04-29T11:16:07;2.40;;;1.77;;
2546;SDS011;1283;47.982;7.834;2023-04-29T11:18:35;4.22;;;1.77;;
2546;SDS011;1283;47.982;7.834;2023-04-29T11:21:11;5.53;;;2.20;;
2546;SDS011;1283;47.982;7.834;2023-04-29T11:23:38;3.70;;;2.17;;
2546;SDS011;1283;47.982;7.834;2023-04-29T11:26:06;2.38;;;1.70;;
2546;SDS011;1283;47.982;7.834;2023-04-29T11:28:32;2.97;;;1.85;;
2546;SDS011;1283;47.982;7.834;2023-04-29T11:30:59;2.28;;;1.70;;
2546;SDS011;1283;47.982;7.834;2023-04-29T11:33:30;3.17;;;2.17;;
2546;SDS011;1283;47.982;7.834;2023-04-29T11:35:57;3.95;;;2.33;;
2546;SDS011;1283;47.982;7.834;2023-04-29T11:38:24;3.95;;;1.95;;
2546;SDS011;1283;47.982;7.834;2023-04-29T11:40:50;8.60;;;2.17;;
2546;SDS011;1283;47.982;7.834;2023-04-29T11:43:17;3.53;;;1.98;;
2546;SDS011;1283;47.982;7.834;2023-04-29T11:45:44;5.50;;;2.25;;
2546;SDS011;1283;47.982;7.834;2023-04-29T11:48:16;3.58;;;2.30;;
2546;SDS011;1283;47.982;7.834;2023-04-29T11:50:44;3.47;;;2.40;;
2546;SDS011;1283;47.982;7.834;2023-04-29T11:53:11;6.43;;;2.00;;
2546;SDS011;1283;47.982;7.834;2023-04-29T11:55:38;5.85;;;2.13;;
2546;SDS011;1283;47.982;7.834;2023-04-29T11:58:07;8.75;;;2.60;;
2546;SDS011;1283;47.982;7.834;2023-04-29T12:00:33;4.53;;;1.90;;
2546;SDS011;1283;47.982;7.834;2023-04-29T12:03:00;2.00;;;1.60;;
2546;SDS011;1283;47.982;7.834;2023-04-29T12:05:26;2.50;;;1.90;;
2546;SDS011;1283;47.982;7.834;2023-04-29T12:07:54;4.10;;;2.17;;
2546;SDS011;1283;47.982;7.834;2023-04-29T12:10:21;3.58;;;2.00;;
2546;SDS011;1283;47.982;7.834;2023-04-29T12:12:47;8.57;;;2.17;;
2546;SDS011;1283;47.982;7.834;2023-04-29T12:15:14;4.38;;;2.17;;
2546;SDS011;1283;47.982;7.834;2023-04-29T12:17:41;4.60;;;2.08;;
2546;SDS011;1283;47.982;7.834;2023-04-29T12:20:09;4.90;;;1.90;;
2546;SDS011;1283;47.982;7.834;2023-04-29T12:22:36;2.15;;;1.42;;
2546;SDS011;1283;47.982;7.834;2023-04-29T12:25:04;4.72;;;2.13;;
2546;SDS011;1283;47.982;7.834;2023-04-29T12:27:32;2.42;;;1.98;;
2546;SDS011;1283;47.982;7.834;2023-04-29T12:29:58;4.20;;;1.83;;
2546;SDS011;1283;47.982;7.834;2023-04-29T12:32:25;5.53;;;1.88;;
2546;SDS011;1283;47.982;7.834;2023-04-29T12:34:51;2.97;;;1.63;;
2546;SDS011;1283;47.982;7.834;2023-04-29T12:37:18;5.13;;;1.90;;
2546;SDS011;1283;47.982;7.834;2023-04-29T12:39:44;5.95;;;2.10;;
2546;SDS011;1283;47.982;7.834;2023-04-29T12:42:15;6.07;;;1.90;;
2546;SDS011;1283;47.982;7.834;2023-04-29T12:44:43;2.60;;;1.92;;
2546;SDS011;1283;47.982;7.834;2023-04-29T12:47:11;2.00;;;1.65;;
2546;SDS011;1283;47.982;7.834;2023-04-29T12:49:40;2.33;;;1.30;;
2546;SDS011;1283;47.982;7.834;2023-04-29T12:52:07;3.17;;;1.75;;
2546;SDS011;1283;47.982;7.834;2023-04-29T12:54:34;6.32;;;1.80;;
2546;SDS011;1283;47.982;7.834;2023-04-29T12:57:01;5.38;;;1.90;;
2546;SDS011;1283;47.982;7.834;2023-04-29T12:59:29;6.45;;;1.40;;
2546;SDS011;1283;47.982;7.834;2023-04-29T13:01:56;3.97;;;2.17;;
2546;SDS011;1283;47.982;7.834;2023-04-29T13:04:22;3.63;;;1.80;;
2546;SDS011;1283;47.982;7.834;2023-04-29T13:06:49;4.53;;;1.90;;
2546;SDS011;1283;47.982;7.834;2023-04-29T13:09:18;6.03;;;2.40;;
2546;SDS011;1283;47.982;7.834;2023-04-29T13:11:44;3.05;;;1.90;;
2546;SDS011;1283;47.982;7.834;2023-04-29T13:14:11;2.45;;;2.00;;
2546;SDS011;1283;47.982;7.834;2023-04-29T13:16:39;2.60;;;1.90;;
2546;SDS011;1283;47.982;7.834;2023-04-29T13:19:05;5.82;;;1.80;;
2546;SDS011;1283;47.982;7.834;2023-04-29T13:21:32;3.25;;;2.15;;
2546;SDS011;1283;47.982;7.834;2023-04-29T13:23:58;2.60;;;1.90;;
2546;SDS011;1283;47.982;7.834;2023-04-29T13:26:25;4.03;;;2.33;;
2546;SDS011;1283;47.982;7.834;2023-04-29T13:28:51;4.68;;;1.92;;
2546;SDS011;1283;47.982;7.834;2023-04-29T13:31:18;4.95;;;3.00;;
2546;SDS011;1283;47.982;7.834;2023-04-29T13:33:46;3.75;;;2.38;;
2546;SDS011;1283;47.982;7.834;2023-04-29T13:36:13;4.45;;;2.45;;
2546;SDS011;1283;47.982;7.834;2023-04-29T13:38:39;4.28;;;2.55;;
2546;SDS011;1283;47.982;7.834;2023-04-29T13:41:06;9.40;;;2.67;;
2546;SDS011;1283;47.982;7.834;2023-04-29T13:43:33;4.30;;;2.30;;
2546;SDS011;1283;47.982;7.834;2023-04-29T13:46:00;3.88;;;2.10;;
2546;SDS011;1283;47.982;7.834;2023-04-29T13:48:26;3.67;;;2.55;;
2546;SDS011;1283;47.982;7.834;2023-04-29T13:50:54;5.63;;;2.95;;
2546;SDS011;1283;47.982;7.834;2023-04-29T13:53:20;3.60;;;2.53;;
2546;SDS011;1283;47.982;7.834;2023-04-29T13:55:47;5.47;;;2.78;;
2546;SDS011;1283;47.982;7.834;2023-04-29T13:58:13;5.75;;;2.45;;
2546;SDS011;1283;47.982;7.834;2023-04-29T14:00:40;5.80;;;3.10;;
2546;SDS011;1283;47.982;7.834;2023-04-29T14:03:06;4.50;;;1.98;;
2546;SDS011;1283;47.982;7.834;2023-04-29T14:05:33;5.32;;;2.40;;
2546;SDS011;1283;47.982;7.834;2023-04-29T14:08:01;6.95;;;2.70;;
2546;SDS011;1283;47.982;7.834;2023-04-29T14:10:27;3.63;;;2.65;;
2546;SDS011;1283;47.982;7.834;2023-04-29T14:12:54;4.07;;;2.40;;
2546;SDS011;1283;47.982;7.834;2023-04-29T14:15:20;5.80;;;2.13;;
2546;SDS011;1283;47.982;7.834;2023-04-29T14:17:47;5.63;;;2.40;;
2546;SDS011;1283;47.982;7.834;2023-04-29T14:20:14;5.75;;;2.58;;
2546;SDS011;1283;47.982;7.834;2023-04-29T14:22:41;3.65;;;2.70;;
2546;SDS011;1283;47.982;7.834;2023-04-29T14:25:09;3.83;;;2.72;;
2546;SDS011;1283;47.982;7.834;2023-04-29T14:27:36;4.35;;;2.70;;
2546;SDS011;1283;47.982;7.834;2023-04-29T14:30:03;4.78;;;2.83;;
2546;SDS011;1283;47.982;7.834;2023-04-29T14:32:30;10.38;;;2.63;;
2546;SDS011;1283;47.982;7.834;2023-04-29T14:34:56;4.07;;;2.15;;
2546;SDS011;1283;47.982;7.834;2023-04-29T14:37:23;3.28;;;2.38;;
2546;SDS011;1283;47.982;7.834;2023-04-29T14:39:50;8.82;;;2.78;;
2546;SDS011;1283;47.982;7.834;2023-04-29T14:42:18;6.70;;;2.75;;
2546;SDS011;1283;47.982;7.834;2023-04-29T14:44:45;3.90;;;2.92;;
2546;SDS011;1283;47.982;7.834;2023-04-29T14:47:11;5.25;;;2.88;;
2546;SDS011;1283;47.982;7.834;2023-04-29T14:49:38;10.02;;;3.63;;
2546;SDS011;1283;47.982;7.834;2023-04-29T14:52:05;6.22;;;2.60;;
2546;SDS011;1283;47.982;7.834;2023-04-29T14:54:31;3.10;;;2.58;;
2546;SDS011;1283;47.982;7.834;2023-04-29T14:56:58;7.25;;;2.75;;
2546;SDS011;1283;47.982;7.834;2023-04-29T14:59:25;4.72;;;2.28;;
2546;SDS011;1283;47.982;7.834;2023-04-29T15:01:54;3.65;;;2.13;;
2546;SDS011;1283;47.982;7.834;2023-04-29T15:04:20;5.70;;;2.70;;
2546;SDS011;1283;47.982;7.834;2023-04-29T15:06:47;8.65;;;2.25;;
2546;SDS011;1283;47.982;7.834;2023-04-29T15:09:13;2.60;;;2.03;;
2546;SDS011;1283;47.982;7.834;2023-04-29T15:11:40;3.28;;;2.30;;
2546;SDS011;1283;47.982;7.834;2023-04-29T15:14:06;6.20;;;2.38;;
2546;SDS011;1283;47.982;7.834;2023-04-29T15:16:34;4.30;;;3.10;;
2546;SDS011;1283;47.982;7.834;2023-04-29T15:19:01;3.80;;;2.70;;
2546;SDS011;1283;47.982;7.834;2023-04-29T15:21:27;5.90;;;2.67;;
2546;SDS011;1283;47.982;7.834;2023-04-29T15:23:54;10.27;;;3.08;;
2546;SDS011;1283;47.982;7.834;2023-04-29T15:26:20;4.60;;;3.22;;
2546;SDS011;1283;47.982;7.834;2023-04-29T15:28:47;4.40;;;3.00;;